sensor_id;sensor_type;location;lat;lon;timestamp;pressure;altitude;pressure_sealevel;temperature;humidity
25238;BME280;13185;50.872;5.306;2023-04-07T00:00:21;101154.25;;;8.60;100.00
25238;BME280;13185;50.872;5.306;2023-04-07T00:02:47;101160.63;;;8.57;100.00
25238;BME280;13185;50.872;5.306;2023-04-07T00:05:13;101161.56;;;8.56;100.00
25238;BME280;13185;50.872;5.306;2023-04-07T00:07:39;101160.72;;;8.56;100.00
25238;BME280;13185;50.872;5.306;2023-04-07T00:10:06;101169.50;;;8.58;100.00
25238;BME280;13185;50.872;5.306;2023-04-07T00:12:31;101170.44;;;8.57;100.00
25238;BME280;13185;50.872;5.306;2023-04-07T00:14:57;101168.63;;;8.57;100.00
25238;BME280;13185;50.872;5.306;2023-04-07T00:17:22;101177.53;;;8.58;100.00
25238;BME280;13185;50.872;5.306;2023-04-07T00:19:47;101172.19;;;8.58;100.00
25238;BME280;13185;50.872;5.306;2023-04-07T00:22:13;101170.38;;;8.58;100.00
25238;BME280;13185;50.872;5.306;2023-04-07T00:24:38;101164.16;;;8.58;100.00
25238;BME280;13185;50.872;5.306;2023-04-07T00:27:04;101162.56;;;8.54;100.00
25238;BME280;13185;50.872;5.306;2023-04-07T00:29:30;101165.41;;;8.51;100.00
25238;BME280;13185;50.872;5.306;2023-04-07T00:31:55;101160.22;;;8.48;100.00
25238;BME280;13185;50.872;5.306;2023-04-07T00:34:20;101163.19;;;8.42;100.00
25238;BME280;13185;50.872;5.306;2023-04-07T00:36:46;101162.41;;;8.39;100.00
25238;BME280;13185;50.872;5.306;2023-04-07T00:39:17;101169.56;;;8.39;100.00
25238;BME280;13185;50.872;5.306;2023-04-07T00:41:44;101175.88;;;8.38;100.00
25238;BME280;13185;50.872;5.306;2023-04-07T00:44:10;101171.38;;;8.38;100.00
25238;BME280;13185;50.872;5.306;2023-04-07T00:46:35;101165.16;;;8.38;100.00
25238;BME280;13185;50.872;5.306;2023-04-07T00:49:01;101170.59;;;8.36;100.00
25238;BME280;13185;50.872;5.306;2023-04-07T00:51:26;101177.84;;;8.34;100.00
25238;BME280;13185;50.872;5.306;2023-04-07T00:53:53;101170.69;;;8.33;100.00
25238;BME280;13185;50.872;5.306;2023-04-07T00:56:19;101173.44;;;8.32;100.00
25238;BME280;13185;50.872;5.306;2023-04-07T00:58:44;101171.66;;;8.32;100.00
25238;BME280;13185;50.872;5.306;2023-04-07T01:01:27;101161.97;;;8.30;100.00
25238;BME280;13185;50.872;5.306;2023-04-07T01:04:04;101167.41;;;8.28;100.00
25238;BME280;13185;50.872;5.306;2023-04-07T01:06:35;101170.09;;;8.28;100.00
25238;BME280;13185;50.872;5.306;2023-04-07T01:09:14;101161.13;;;8.29;100.00
25238;BME280;13185;50.872;5.306;2023-04-07T01:14:20;101162.75;;;8.32;100.00
25238;BME280;13185;50.872;5.306;2023-04-07T01:16:55;101161.81;;;8.33;100.00
25238;BME280;13185;50.872;5.306;2023-04-07T01:21:57;101161.81;;;8.34;100.00
25238;BME280;13185;50.872;5.306;2023-04-07T01:29:53;101155.59;;;8.32;100.00
25238;BME280;13185;50.872;5.306;2023-04-07T01:32:20;101153.97;;;8.30;100.00
25238;BME280;13185;50.872;5.306;2023-04-07T01:34:49;101164.66;;;8.30;100.00
25238;BME280;13185;50.872;5.306;2023-04-07T01:37:16;101165.59;;;8.29;100.00
25238;BME280;13185;50.872;5.306;2023-04-07T01:39:42;101165.69;;;8.27;100.00
25238;BME280;13185;50.872;5.306;2023-04-07T01:42:08;101159.56;;;8.25;100.00
25238;BME280;13185;50.872;5.306;2023-04-07T01:44:34;101162.38;;;8.22;100.00
25238;BME280;13185;50.872;5.306;2023-04-07T01:47:01;101159.78;;;8.21;100.00
25238;BME280;13185;50.872;5.306;2023-04-07T01:49:27;101157.19;;;8.19;100.00
25238;BME280;13185;50.872;5.306;2023-04-07T01:51:54;101158.91;;;8.20;100.00
25238;BME280;13185;50.872;5.306;2023-04-07T01:54:22;101161.66;;;8.19;100.00
25238;BME280;13185;50.872;5.306;2023-04-07T01:56:48;101158.22;;;8.17;100.00
25238;BME280;13185;50.872;5.306;2023-04-07T01:59:14;101161.81;;;8.16;100.00
25238;BME280;13185;50.872;5.306;2023-04-07T02:01:41;101166.22;;;8.17;100.00
25238;BME280;13185;50.872;5.306;2023-04-07T02:04:31;101160.97;;;8.15;100.00
25238;BME280;13185;50.872;5.306;2023-04-07T02:07:08;101165.53;;;8.13;100.00
25238;BME280;13185;50.872;5.306;2023-04-07T02:09:42;101154.19;;;8.08;100.00
25238;BME280;13185;50.872;5.306;2023-04-07T02:12:10;101161.41;;;8.06;100.00
25238;BME280;13185;50.872;5.306;2023-04-07T02:14:42;101159.75;;;8.03;100.00
25238;BME280;13185;50.872;5.306;2023-04-07T02:17:13;101158.03;;;8.02;100.00
25238;BME280;13185;50.872;5.306;2023-04-07T02:19:40;101161.63;;;8.01;100.00
25238;BME280;13185;50.872;5.306;2023-04-07T02:22:07;101165.25;;;8.00;100.00
25238;BME280;13185;50.872;5.306;2023-04-07T02:24:33;101164.38;;;8.00;100.00
25238;BME280;13185;50.872;5.306;2023-04-07T02:26:58;101169.72;;;8.00;100.00
25238;BME280;13185;50.872;5.306;2023-04-07T02:29:26;101168.84;;;7.99;100.00
25238;BME280;13185;50.872;5.306;2023-04-07T02:31:51;101171.44;;;8.01;100.00
25238;BME280;13185;50.872;5.306;2023-04-07T02:34:17;101178.59;;;8.00;100.00
25238;BME280;13185;50.872;5.306;2023-04-07T02:36:42;101174.13;;;8.01;100.00
25238;BME280;13185;50.872;5.306;2023-04-07T02:39:08;101185.66;;;8.01;100.00
25238;BME280;13185;50.872;5.306;2023-04-07T02:41:34;101178.59;;;8.00;100.00
25238;BME280;13185;50.872;5.306;2023-04-07T02:44:00;101182.22;;;7.99;100.00
25238;BME280;13185;50.872;5.306;2023-04-07T02:46:25;101180.31;;;8.01;100.00
25238;BME280;13185;50.872;5.306;2023-04-07T02:48:50;101182.09;;;8.02;100.00
25238;BME280;13185;50.872;5.306;2023-04-07T02:51:16;101174.06;;;8.02;100.00
25238;BME280;13185;50.872;5.306;2023-04-07T02:53:42;101176.75;;;8.02;100.00
25238;BME280;13185;50.872;5.306;2023-04-07T02:56:07;101181.19;;;8.02;100.00
25238;BME280;13185;50.872;5.306;2023-04-07T02:58:33;101179.47;;;8.01;100.00
25238;BME280;13185;50.872;5.306;2023-04-07T03:00:58;101186.59;;;8.00;100.00
25238;BME280;13185;50.872;5.306;2023-04-07T03:03:27;101187.53;;;7.99;100.00
25238;BME280;13185;50.872;5.306;2023-04-07T03:06:02;101185.81;;;7.98;100.00
25238;BME280;13185;50.872;5.306;2023-04-07T03:08:29;101186.69;;;7.99;100.00
25238;BME280;13185;50.872;5.306;2023-04-07T03:10:55;101188.41;;;8.00;100.00
25238;BME280;13185;50.872;5.306;2023-04-07T03:13:26;101191.94;;;8.00;100.00
25238;BME280;13185;50.872;5.306;2023-04-07T03:15:54;101182.28;;;7.98;100.00
25238;BME280;13185;50.872;5.306;2023-04-07T03:18:20;101185.81;;;7.98;100.00
25238;BME280;13185;50.872;5.306;2023-04-07T03:20:47;101184.88;;;7.99;100.00
25238;BME280;13185;50.872;5.306;2023-04-07T03:23:14;101180.47;;;7.98;100.00
25238;BME280;13185;50.872;5.306;2023-04-07T03:25:40;101184.97;;;7.98;100.00
25238;BME280;13185;50.872;5.306;2023-04-07T03:28:07;101180.47;;;7.98;100.00
25238;BME280;13185;50.872;5.306;2023-04-07T03:30:36;101178.66;;;7.99;100.00
25238;BME280;13185;50.872;5.306;2023-04-07T03:33:01;101180.56;;;7.97;100.00
25238;BME280;13185;50.872;5.306;2023-04-07T03:35:29;101181.50;;;7.96;100.00
25238;BME280;13185;50.872;5.306;2023-04-07T03:37:54;101182.44;;;7.95;100.00
25238;BME280;13185;50.872;5.306;2023-04-07T03:40:20;101184.38;;;7.91;100.00
25238;BME280;13185;50.872;5.306;2023-04-07T03:42:47;101188.00;;;7.90;100.00
25238;BME280;13185;50.872;5.306;2023-04-07T03:45:14;101187.91;;;7.92;100.00
25238;BME280;13185;50.872;5.306;2023-04-07T03:47:45;101187.00;;;7.93;100.00
25238;BME280;13185;50.872;5.306;2023-04-07T03:50:11;101189.59;;;7.94;100.00
25238;BME280;13185;50.872;5.306;2023-04-07T03:52:47;101188.72;;;7.94;100.00
25238;BME280;13185;50.872;5.306;2023-04-07T03:55:21;101193.13;;;7.95;100.00
25238;BME280;13185;50.872;5.306;2023-04-07T03:57:48;101200.34;;;7.93;100.00
25238;BME280;13185;50.872;5.306;2023-04-07T04:00:14;101206.56;;;7.93;100.00
25238;BME280;13185;50.872;5.306;2023-04-07T04:02:47;101193.22;;;7.93;100.00
25238;BME280;13185;50.872;5.306;2023-04-07T04:05:17;101197.69;;;7.93;100.00
25238;BME280;13185;50.872;5.306;2023-04-07T04:07:44;101204.97;;;7.89;100.00
25238;BME280;13185;50.872;5.306;2023-04-07T04:10:09;101208.66;;;7.87;100.00
25238;BME280;13185;50.872;5.306;2023-04-07T04:12:40;101205.91;;;7.88;100.00
25238;BME280;13185;50.872;5.306;2023-04-07T04:15:09;101211.25;;;7.88;100.00
25238;BME280;13185;50.872;5.306;2023-04-07T04:17:35;101210.38;;;7.88;100.00
25238;BME280;13185;50.872;5.306;2023-04-07T04:20:03;101213.19;;;7.85;100.00
25238;BME280;13185;50.872;5.306;2023-04-07T04:22:39;101210.72;;;7.80;100.00
25238;BME280;13185;50.872;5.306;2023-04-07T04:25:05;101214.28;;;7.80;100.00
25238;BME280;13185;50.872;5.306;2023-04-07T04:27:31;101210.81;;;7.78;100.00
25238;BME280;13185;50.872;5.306;2023-04-07T04:30:03;101212.78;;;7.75;100.00
25238;BME280;13185;50.872;5.306;2023-04-07T04:32:39;101216.47;;;7.72;100.00
25238;BME280;13185;50.872;5.306;2023-04-07T04:35:06;101224.50;;;7.71;100.00
25238;BME280;13185;50.872;5.306;2023-04-07T04:37:37;101224.66;;;7.68;100.00
25238;BME280;13185;50.872;5.306;2023-04-07T04:40:08;101223.97;;;7.64;100.00
25238;BME280;13185;50.872;5.306;2023-04-07T04:42:35;101230.31;;;7.62;100.00
25238;BME280;13185;50.872;5.306;2023-04-07T04:45:01;101235.78;;;7.59;100.00
25238;BME280;13185;50.872;5.306;2023-04-07T04:47:28;101232.16;;;7.60;100.00
25238;BME280;13185;50.872;5.306;2023-04-07T04:49:55;101228.56;;;7.61;100.00
25238;BME280;13185;50.872;5.306;2023-04-07T04:52:20;101233.03;;;7.60;100.00
25238;BME280;13185;50.872;5.306;2023-04-07T04:54:47;101233.97;;;7.59;100.00
25238;BME280;13185;50.872;5.306;2023-04-07T04:57:13;101232.25;;;7.58;100.00
25238;BME280;13185;50.872;5.306;2023-04-07T04:59:40;101237.66;;;7.57;100.00
25238;BME280;13185;50.872;5.306;2023-04-07T05:02:06;101238.66;;;7.54;100.00
25238;BME280;13185;50.872;5.306;2023-04-07T05:04:33;101236.16;;;7.51;100.00
25238;BME280;13185;50.872;5.306;2023-04-07T05:07:09;101246.94;;;7.48;100.00
25238;BME280;13185;50.872;5.306;2023-04-07T05:09:35;101243.41;;;7.47;100.00
25238;BME280;13185;50.872;5.306;2023-04-07T05:12:01;101251.41;;;7.47;100.00
25238;BME280;13185;50.872;5.306;2023-04-07T05:14:29;101252.28;;;7.48;100.00
25238;BME280;13185;50.872;5.306;2023-04-07T05:17:03;101246.22;;;7.44;100.00
25238;BME280;13185;50.872;5.306;2023-04-07T05:19:29;101255.25;;;7.42;100.00
25238;BME280;13185;50.872;5.306;2023-04-07T05:22:00;101253.53;;;7.41;100.00
25238;BME280;13185;50.872;5.306;2023-04-07T05:24:27;101255.44;;;7.37;100.00
25238;BME280;13185;50.872;5.306;2023-04-07T05:26:56;101255.66;;;7.33;100.00
25238;BME280;13185;50.872;5.306;2023-04-07T05:29:23;101257.56;;;7.29;100.00
25238;BME280;13185;50.872;5.306;2023-04-07T05:31:49;101255.91;;;7.27;100.00
25238;BME280;13185;50.872;5.306;2023-04-07T05:34:16;101264.94;;;7.24;100.00
25238;BME280;13185;50.872;5.306;2023-04-07T05:36:48;101267.69;;;7.22;100.00
25238;BME280;13185;50.872;5.306;2023-04-07T05:39:14;101263.28;;;7.21;100.00
25238;BME280;13185;50.872;5.306;2023-04-07T05:41:40;101266.88;;;7.20;100.00
25238;BME280;13185;50.872;5.306;2023-04-07T05:44:07;101266.88;;;7.20;100.00
25238;BME280;13185;50.872;5.306;2023-04-07T05:46:37;101266.03;;;7.20;100.00
25238;BME280;13185;50.872;5.306;2023-04-07T05:49:02;101273.19;;;7.18;100.00
25238;BME280;13185;50.872;5.306;2023-04-07T05:51:29;101269.72;;;7.16;100.00
25238;BME280;13185;50.872;5.306;2023-04-07T05:53:59;101271.53;;;7.15;100.00
25238;BME280;13185;50.872;5.306;2023-04-07T05:56:25;101275.13;;;7.14;100.00
25238;BME280;13185;50.872;5.306;2023-04-07T05:58:51;101279.47;;;7.17;100.00
25238;BME280;13185;50.872;5.306;2023-04-07T06:01:18;101284.69;;;7.20;100.00
25238;BME280;13185;50.872;5.306;2023-04-07T06:03:43;101282.88;;;7.20;100.00
25238;BME280;13185;50.872;5.306;2023-04-07T06:06:16;101293.41;;;7.23;100.00
25238;BME280;13185;50.872;5.306;2023-04-07T06:08:43;101284.41;;;7.26;100.00
25238;BME280;13185;50.872;5.306;2023-04-07T06:11:10;101295.81;;;7.30;100.00
25238;BME280;13185;50.872;5.306;2023-04-07T06:13:36;101297.41;;;7.34;100.00
25238;BME280;13185;50.872;5.306;2023-04-07T06:16:01;101295.38;;;7.39;100.00
25238;BME280;13185;50.872;5.306;2023-04-07T06:18:27;101297.00;;;7.43;100.00
25238;BME280;13185;50.872;5.306;2023-04-07T06:20:52;101303.13;;;7.45;100.00
25238;BME280;13185;50.872;5.306;2023-04-07T06:23:18;101298.50;;;7.48;100.00
25238;BME280;13185;50.872;5.306;2023-04-07T06:25:43;101310.81;;;7.52;100.00
25238;BME280;13185;50.872;5.306;2023-04-07T06:28:12;101312.38;;;7.57;100.00
25238;BME280;13185;50.872;5.306;2023-04-07T06:30:38;101308.00;;;7.56;100.00
25238;BME280;13185;50.872;5.306;2023-04-07T06:33:08;101308.84;;;7.56;100.00
25238;BME280;13185;50.872;5.306;2023-04-07T06:35:33;101316.00;;;7.56;100.00
25238;BME280;13185;50.872;5.306;2023-04-07T06:37:59;101315.22;;;7.53;100.00
25238;BME280;13185;50.872;5.306;2023-04-07T06:40:25;101318.81;;;7.52;100.00
25238;BME280;13185;50.872;5.306;2023-04-07T06:42:50;101321.47;;;7.52;100.00
25238;BME280;13185;50.872;5.306;2023-04-07T06:45:34;101320.69;;;7.50;100.00
25238;BME280;13185;50.872;5.306;2023-04-07T06:48:00;101322.41;;;7.51;100.00
25238;BME280;13185;50.872;5.306;2023-04-07T06:50:25;101323.13;;;7.55;100.00
25238;BME280;13185;50.872;5.306;2023-04-07T06:52:51;101324.00;;;7.56;100.00
25238;BME280;13185;50.872;5.306;2023-04-07T06:55:16;101323.00;;;7.58;100.00
25238;BME280;13185;50.872;5.306;2023-04-07T06:57:42;101328.16;;;7.63;100.00
25238;BME280;13185;50.872;5.306;2023-04-07T07:00:07;101327.06;;;7.67;100.00
25238;BME280;13185;50.872;5.306;2023-04-07T07:02:33;101330.44;;;7.70;100.00
25238;BME280;13185;50.872;5.306;2023-04-07T07:04:59;101328.53;;;7.74;100.00
25238;BME280;13185;50.872;5.306;2023-04-07T07:07:25;101333.63;;;7.78;100.00
25238;BME280;13185;50.872;5.306;2023-04-07T07:09:51;101338.03;;;7.79;100.00
25238;BME280;13185;50.872;5.306;2023-04-07T07:12:16;101347.78;;;7.80;100.00
25238;BME280;13185;50.872;5.306;2023-04-07T07:14:42;101353.97;;;7.81;100.00
25238;BME280;13185;50.872;5.306;2023-04-07T07:17:08;101350.59;;;7.77;100.00
25238;BME280;13185;50.872;5.306;2023-04-07T07:19:33;101356.00;;;7.76;100.00
25238;BME280;13185;50.872;5.306;2023-04-07T07:22:00;101351.53;;;7.76;100.00
25238;BME280;13185;50.872;5.306;2023-04-07T07:24:28;101356.88;;;7.76;100.00
25238;BME280;13185;50.872;5.306;2023-04-07T07:26:55;101357.75;;;7.77;100.00
25238;BME280;13185;50.872;5.306;2023-04-07T07:29:21;101361.09;;;7.82;100.00
25238;BME280;13185;50.872;5.306;2023-04-07T07:31:47;101365.06;;;7.92;100.00
25238;BME280;13185;50.872;5.306;2023-04-07T07:34:12;101376.16;;;8.02;100.00
25238;BME280;13185;50.872;5.306;2023-04-07T07:36:38;101370.56;;;8.08;100.00
25238;BME280;13185;50.872;5.306;2023-04-07T07:39:03;101372.81;;;8.17;100.00
25238;BME280;13185;50.872;5.306;2023-04-07T07:41:30;101373.41;;;8.24;100.00
25238;BME280;13185;50.872;5.306;2023-04-07T07:43:55;101374.03;;;8.29;100.00
25238;BME280;13185;50.872;5.306;2023-04-07T07:46:20;101382.53;;;8.38;100.00
25238;BME280;13185;50.872;5.306;2023-04-07T07:48:48;101383.97;;;8.46;100.00
25238;BME280;13185;50.872;5.306;2023-04-07T07:51:14;101374.84;;;8.50;100.00
25238;BME280;13185;50.872;5.306;2023-04-07T07:53:39;101378.91;;;8.58;100.00
25238;BME280;13185;50.872;5.306;2023-04-07T07:56:05;101384.66;;;8.68;100.00
25238;BME280;13185;50.872;5.306;2023-04-07T07:58:30;101383.19;;;8.80;100.00
25238;BME280;13185;50.872;5.306;2023-04-07T08:00:56;101390.69;;;8.90;100.00
25238;BME280;13185;50.872;5.306;2023-04-07T08:03:22;101392.28;;;8.94;100.00
25238;BME280;13185;50.872;5.306;2023-04-07T08:05:48;101394.94;;;8.94;100.00
25238;BME280;13185;50.872;5.306;2023-04-07T08:08:13;101394.16;;;8.92;100.00
25238;BME280;13185;50.872;5.306;2023-04-07T08:10:39;101400.63;;;8.88;100.00
25238;BME280;13185;50.872;5.306;2023-04-07T08:13:04;101408.63;;;8.88;100.00
25238;BME280;13185;50.872;5.306;2023-04-07T08:15:30;101411.81;;;8.96;100.00
25238;BME280;13185;50.872;5.306;2023-04-07T08:17:56;101414.47;;;8.96;100.00
25238;BME280;13185;50.872;5.306;2023-04-07T08:20:21;101406.28;;;9.00;100.00
25238;BME280;13185;50.872;5.306;2023-04-07T08:22:47;101409.38;;;9.09;100.00
25238;BME280;13185;50.872;5.306;2023-04-07T08:25:13;101413.34;;;9.19;100.00
25238;BME280;13185;50.872;5.306;2023-04-07T08:27:38;101410.56;;;9.21;100.00
25238;BME280;13185;50.872;5.306;2023-04-07T08:30:05;101416.56;;;9.26;100.00
25238;BME280;13185;50.872;5.306;2023-04-07T08:32:39;101406.56;;;9.30;100.00
25238;BME280;13185;50.872;5.306;2023-04-07T08:35:05;101413.66;;;9.31;100.00
25238;BME280;13185;50.872;5.306;2023-04-07T08:37:31;101414.69;;;9.28;100.00
25238;BME280;13185;50.872;5.306;2023-04-07T08:39:57;101405.72;;;9.29;100.00
25238;BME280;13185;50.872;5.306;2023-04-07T08:42:27;101407.09;;;9.36;100.00
25238;BME280;13185;50.872;5.306;2023-04-07T08:45:00;101408.53;;;9.43;100.00
25238;BME280;13185;50.872;5.306;2023-04-07T08:47:26;101411.13;;;9.45;100.00
25238;BME280;13185;50.872;5.306;2023-04-07T08:49:56;101415.16;;;9.53;100.00
25238;BME280;13185;50.872;5.306;2023-04-07T08:52:32;101415.25;;;9.69;100.00
25238;BME280;13185;50.872;5.306;2023-04-07T08:54:58;101414.50;;;9.83;100.00
25238;BME280;13185;50.872;5.306;2023-04-07T08:57:29;101416.34;;;9.98;100.00
25238;BME280;13185;50.872;5.306;2023-04-07T08:59:58;101415.25;;;10.02;100.00
25238;BME280;13185;50.872;5.306;2023-04-07T09:02:26;101416.22;;;10.17;100.00
25238;BME280;13185;50.872;5.306;2023-04-07T09:04:52;101416.91;;;10.22;100.00
25238;BME280;13185;50.872;5.306;2023-04-07T09:07:17;101416.47;;;10.30;100.00
25238;BME280;13185;50.872;5.306;2023-04-07T09:09:43;101407.13;;;10.37;100.00
25238;BME280;13185;50.872;5.306;2023-04-07T09:12:08;101404.81;;;10.47;100.00
25238;BME280;13185;50.872;5.306;2023-04-07T09:14:34;101411.63;;;10.52;98.36
25238;BME280;13185;50.872;5.306;2023-04-07T09:16:59;101415.72;;;10.59;98.14
25238;BME280;13185;50.872;5.306;2023-04-07T09:19:26;101409.84;;;10.68;97.38
25238;BME280;13185;50.872;5.306;2023-04-07T09:21:52;101420.16;;;10.76;95.78
25238;BME280;13185;50.872;5.306;2023-04-07T09:24:25;101407.69;;;10.75;94.30
25238;BME280;13185;50.872;5.306;2023-04-07T09:27:11;101417.09;;;10.82;94.45
25238;BME280;13185;50.872;5.306;2023-04-07T09:29:38;101424.72;;;10.90;93.50
25238;BME280;13185;50.872;5.306;2023-04-07T09:32:04;101413.66;;;10.96;93.71
25238;BME280;13185;50.872;5.306;2023-04-07T09:34:36;101426.00;;;10.98;92.61
25238;BME280;13185;50.872;5.306;2023-04-07T09:37:02;101421.69;;;10.96;92.43
25238;BME280;13185;50.872;5.306;2023-04-07T09:39:29;101416.91;;;11.01;91.89
25238;BME280;13185;50.872;5.306;2023-04-07T09:41:54;101423.28;;;11.14;93.04
25238;BME280;13185;50.872;5.306;2023-04-07T09:44:21;101411.09;;;11.09;91.10
25238;BME280;13185;50.872;5.306;2023-04-07T09:46:55;101406.78;;;11.06;91.23
25238;BME280;13185;50.872;5.306;2023-04-07T09:49:21;101417.88;;;11.00;90.39
25238;BME280;13185;50.872;5.306;2023-04-07T09:52:02;101418.47;;;11.05;90.05
25238;BME280;13185;50.872;5.306;2023-04-07T09:57:04;101425.06;;;11.15;89.20
25238;BME280;13185;50.872;5.306;2023-04-07T09:59:31;101428.66;;;11.14;89.47
25238;BME280;13185;50.872;5.306;2023-04-07T10:01:57;101430.47;;;11.14;89.48
25238;BME280;13185;50.872;5.306;2023-04-07T10:04:24;101426.94;;;11.13;89.27
25238;BME280;13185;50.872;5.306;2023-04-07T10:06:51;101424.53;;;11.09;88.27
25238;BME280;13185;50.872;5.306;2023-04-07T10:09:17;101419.25;;;11.07;87.69
25238;BME280;13185;50.872;5.306;2023-04-07T10:11:43;101422.03;;;11.06;85.22
25238;BME280;13185;50.872;5.306;2023-04-07T10:14:10;101420.78;;;11.11;85.24
25238;BME280;13185;50.872;5.306;2023-04-07T10:16:41;101421.84;;;11.09;83.15
25238;BME280;13185;50.872;5.306;2023-04-07T10:19:07;101419.41;;;11.04;83.98
25238;BME280;13185;50.872;5.306;2023-04-07T10:21:36;101424.25;;;11.13;84.33
25238;BME280;13185;50.872;5.306;2023-04-07T10:27:11;101427.75;;;11.15;86.10
25238;BME280;13185;50.872;5.306;2023-04-07T10:29:41;101424.78;;;11.20;86.87
25238;BME280;13185;50.872;5.306;2023-04-07T10:32:07;101417.91;;;11.30;87.43
25238;BME280;13185;50.872;5.306;2023-04-07T10:37:23;101425.84;;;11.47;86.82
25238;BME280;13185;50.872;5.306;2023-04-07T10:45:08;101420.94;;;11.54;83.37
25238;BME280;13185;50.872;5.306;2023-04-07T10:47:34;101432.47;;;11.56;82.67
25238;BME280;13185;50.872;5.306;2023-04-07T10:50:23;101422.41;;;11.60;81.59
25238;BME280;13185;50.872;5.306;2023-04-07T10:53:07;101425.34;;;11.55;82.14
25238;BME280;13185;50.872;5.306;2023-04-07T10:55:43;101434.56;;;11.51;82.11
25238;BME280;13185;50.872;5.306;2023-04-07T11:03:26;101432.56;;;11.54;82.24
25238;BME280;13185;50.872;5.306;2023-04-07T11:06:13;101441.16;;;11.75;82.05
25238;BME280;13185;50.872;5.306;2023-04-07T11:08:40;101433.25;;;11.88;81.78
25238;BME280;13185;50.872;5.306;2023-04-07T11:11:14;101434.13;;;12.03;81.50
25238;BME280;13185;50.872;5.306;2023-04-07T11:16:11;101438.25;;;12.08;81.34
25238;BME280;13185;50.872;5.306;2023-04-07T11:18:37;101440.94;;;12.08;80.17
25238;BME280;13185;50.872;5.306;2023-04-07T11:21:03;101446.03;;;12.13;80.42
25238;BME280;13185;50.872;5.306;2023-04-07T11:23:39;101451.03;;;12.19;80.74
25238;BME280;13185;50.872;5.306;2023-04-07T11:26:05;101450.66;;;12.25;80.53
25238;BME280;13185;50.872;5.306;2023-04-07T11:28:31;101446.72;;;12.31;80.40
25238;BME280;13185;50.872;5.306;2023-04-07T11:30:57;101445.94;;;12.29;79.19
25238;BME280;13185;50.872;5.306;2023-04-07T11:33:29;101443.44;;;12.26;79.08
25238;BME280;13185;50.872;5.306;2023-04-07T11:36:00;101445.56;;;12.35;78.54
25238;BME280;13185;50.872;5.306;2023-04-07T11:38:28;101442.69;;;12.38;77.74
25238;BME280;13185;50.872;5.306;2023-04-07T11:40:55;101445.56;;;12.49;78.44
25238;BME280;13185;50.872;5.306;2023-04-07T11:43:25;101445.66;;;12.62;77.91
25238;BME280;13185;50.872;5.306;2023-04-07T11:46:14;101440.56;;;12.57;76.83
25238;BME280;13185;50.872;5.306;2023-04-07T11:48:41;101452.06;;;12.59;77.32
25238;BME280;13185;50.872;5.306;2023-04-07T11:51:18;101454.31;;;12.53;77.21
25238;BME280;13185;50.872;5.306;2023-04-07T11:53:44;101455.84;;;12.42;78.04
25238;BME280;13185;50.872;5.306;2023-04-07T11:56:14;101443.25;;;12.29;77.83
25238;BME280;13185;50.872;5.306;2023-04-07T11:58:50;101460.72;;;12.07;77.92
25238;BME280;13185;50.872;5.306;2023-04-07T12:01:16;101455.75;;;12.01;78.44
25238;BME280;13185;50.872;5.306;2023-04-07T12:03:59;101459.28;;;12.02;79.18
25238;BME280;13185;50.872;5.306;2023-04-07T12:08:55;101461.63;;;12.22;78.42
25238;BME280;13185;50.872;5.306;2023-04-07T12:11:20;101460.28;;;12.43;78.14
25238;BME280;13185;50.872;5.306;2023-04-07T12:13:46;101462.72;;;12.61;77.54
25238;BME280;13185;50.872;5.306;2023-04-07T12:16:11;101457.94;;;12.66;76.75
25238;BME280;13185;50.872;5.306;2023-04-07T12:18:37;101458.88;;;12.79;77.44
25238;BME280;13185;50.872;5.306;2023-04-07T12:21:02;101460.59;;;12.80;76.77
25238;BME280;13185;50.872;5.306;2023-04-07T12:23:28;101471.41;;;12.66;76.38
25238;BME280;13185;50.872;5.306;2023-04-07T12:25:53;101476.41;;;12.58;76.13
25238;BME280;13185;50.872;5.306;2023-04-07T12:28:19;101473.81;;;12.42;76.19
25238;BME280;13185;50.872;5.306;2023-04-07T12:30:45;101478.03;;;12.32;75.97
25238;BME280;13185;50.872;5.306;2023-04-07T12:33:10;101474.19;;;12.22;76.34
25238;BME280;13185;50.872;5.306;2023-04-07T12:35:36;101483.50;;;12.16;76.63
25238;BME280;13185;50.872;5.306;2023-04-07T12:38:04;101478.81;;;12.20;77.45
25238;BME280;13185;50.872;5.306;2023-04-07T12:40:30;101479.06;;;12.15;77.22
25238;BME280;13185;50.872;5.306;2023-04-07T12:42:56;101479.19;;;12.13;76.44
25238;BME280;13185;50.872;5.306;2023-04-07T12:45:25;101489.53;;;12.05;75.64
25238;BME280;13185;50.872;5.306;2023-04-07T12:47:50;101482.63;;;12.01;75.80
25238;BME280;13185;50.872;5.306;2023-04-07T12:50:16;101479.38;;;12.10;76.76
25238;BME280;13185;50.872;5.306;2023-04-07T12:52:41;101488.09;;;12.14;77.01
25238;BME280;13185;50.872;5.306;2023-04-07T12:55:07;101492.72;;;12.12;76.59
25238;BME280;13185;50.872;5.306;2023-04-07T12:57:33;101495.09;;;12.17;76.71
25238;BME280;13185;50.872;5.306;2023-04-07T12:59:58;101485.81;;;12.22;77.34
25238;BME280;13185;50.872;5.306;2023-04-07T13:02:23;101494.53;;;12.26;76.05
25238;BME280;13185;50.872;5.306;2023-04-07T13:04:49;101497.69;;;12.18;76.86
25238;BME280;13185;50.872;5.306;2023-04-07T13:07:15;101502.22;;;12.18;77.14
25238;BME280;13185;50.872;5.306;2023-04-07T13:09:41;101510.94;;;12.07;76.66
25238;BME280;13185;50.872;5.306;2023-04-07T13:12:10;101508.84;;;12.12;77.63
25238;BME280;13185;50.872;5.306;2023-04-07T13:14:37;101510.94;;;12.07;77.22
25238;BME280;13185;50.872;5.306;2023-04-07T13:17:04;101506.06;;;12.13;77.28
25238;BME280;13185;50.872;5.306;2023-04-07T13:19:29;101505.50;;;12.23;76.49
25238;BME280;13185;50.872;5.306;2023-04-07T13:21:55;101512.88;;;12.19;76.51
25238;BME280;13185;50.872;5.306;2023-04-07T13:24:21;101509.63;;;12.14;76.54
25238;BME280;13185;50.872;5.306;2023-04-07T13:26:46;101517.47;;;12.17;76.64